Time,TemperatureF,DewpointF,PressureIn,WindDirection,WindDirectionDegrees,WindSpeedMPH,WindSpeedGustMPH,Humidity,HourlyPrecipIn,Conditions,Clouds,dailyrainin,SolarRadiationWatts/m^2,SoftwareType,DateUTC
2013-01-22 00:05:00,14.3,7.8,30.53,East,96,0.0,0.0,75,0.00,,,0.00,0,Wunderground v.1.15,2013-01-22 07:05:00,
2013-01-22 00:10:00,14.2,7.7,30.53,East,96,0.0,0.0,75,0.00,,,0.00,0,Wunderground v.1.15,2013-01-22 07:10:00,
2013-01-22 00:16:00,13.9,7.4,30.53,East,96,0.0,0.0,75,0.00,,,0.00,0,Wunderground v.1.15,2013-01-22 07:16:00,
2013-01-22 00:21:00,13.7,7.2,30.53,East,96,0.0,0.0,75,0.00,,,0.00,0,Wunderground v.1.15,2013-01-22 07:21:00,
2013-01-22 00:27:00,13.7,7.5,30.53,East,96,0.0,0.0,76,0.00,,,0.00,0,Wunderground v.1.15,2013-01-22 07:27:00,
2013-01-22 00:32:00,13.7,7.5,30.53,East,96,0.0,0.0,76,0.00,,,0.00,0,Wunderground v.1.15,2013-01-22 07:32:00,
2013-01-22 00:37:00,13.7,7.5,30.53,East,96,0.0,0.0,76,0.00,,,0.00,0,Wunderground v.1.15,2013-01-22 07:37:00,
2013-01-22 00:43:00,13.5,7.0,30.53,East,96,0.0,0.0,75,0.00,,,0.00,0,Wunderground v.1.15,2013-01-22 07:43:00,
2013-01-22 00:48:00,13.4,7.2,30.53,East,96,0.0,0.0,76,0.00,,,0.00,0,Wunderground v.1.15,2013-01-22 07:48:00,
2013-01-22 00:53:00,13.1,7.0,30.53,East,96,0.0,0.0,76,0.00,,,0.00,0,Wunderground v.1.15,2013-01-22 07:53:00,
2013-01-22 00:58:00,13.0,6.9,30.53,East,96,0.0,0.0,76,0.00,,,0.00,0,Wunderground v.1.15,2013-01-22 07:58:00,
2013-01-22 01:03:00,12.8,6.7,30.53,East,96,0.0,0.0,76,0.00,,,0.00,0,Wunderground v.1.15,2013-01-22 08:03:00,
2013-01-22 01:09:00,12.5,6.4,30.53,East,96,0.0,0.0,76,0.00,,,0.00,0,Wunderground v.1.15,2013-01-22 08:09:00,
2013-01-22 01:14:00,12.5,6.4,30.53,East,96,0.0,0.0,76,0.00,,,0.00,0,Wunderground v.1.15,2013-01-22 08:14:00,
2013-01-22 01:19:00,12.5,6.4,30.53,East,96,0.0,0.0,76,0.00,,,0.00,0,Wunderground v.1.15,2013-01-22 08:19:00,
2013-01-22 01:24:00,12.5,6.7,30.54,East,96,0.0,0.0,77,0.00,,,0.00,0,Wunderground v.1.15,2013-01-22 08:24:00,
2013-01-22 01:29:00,12.5,6.7,30.53,East,96,0.0,0.0,77,0.00,,,0.00,0,Wunderground v.1.15,2013-01-22 08:29:00,
2013-01-22 01:35:00,12.6,6.8,30.53,East,96,0.0,0.0,77,0.00,,,0.00,0,Wunderground v.1.15,2013-01-22 08:35:00,
2013-01-22 01:40:00,12.5,6.7,30.54,East,96,0.0,0.0,77,0.00,,,0.00,0,Wunderground v.1.15,2013-01-22 08:40:00,
2013-01-22 01:46:00,12.5,6.7,30.54,East,96,0.0,0.0,77,0.00,,,0.00,0,Wunderground v.1.15,2013-01-22 08:46:00,
2013-01-22 01:51:00,12.7,6.9,30.54,East,96,0.0,0.0,77,0.00,,,0.00,0,Wunderground v.1.15,2013-01-22 08:51:00,
2013-01-22 01:56:00,13.0,7.1,30.54,East,96,0.0,0.0,77,0.00,,,0.00,0,Wunderground v.1.15,2013-01-22 08:56:00,
2013-01-22 02:01:00,12.7,6.6,30.55,East,96,0.0,0.0,76,0.00,,,0.00,0,Wunderground v.1.15,2013-01-22 09:01:00,
2013-01-22 02:06:00,12.5,6.4,30.55,East,96,0.0,0.0,76,0.00,,,0.00,0,Wunderground v.1.15,2013-01-22 09:06:00,
2013-01-22 02:11:00,12.3,6.2,30.55,East,96,0.0,0.0,76,0.00,,,0.00,0,Wunderground v.1.15,2013-01-22 09:11:00,
2013-01-22 02:16:00,12.1,6.0,30.55,East,96,0.0,0.0,76,0.00,,,0.00,0,Wunderground v.1.15,2013-01-22 09:16:00,
2013-01-22 02:21:00,11.9,5.8,30.55,East,96,0.0,0.0,76,0.00,,,0.00,0,Wunderground v.1.15,2013-01-22 09:21:00,
2013-01-22 02:26:00,11.9,5.8,30.55,East,96,0.0,0.0,76,0.00,,,0.00,0,Wunderground v.1.15,2013-01-22 09:26:00,
2013-01-22 02:31:00,12.2,6.4,30.55,East,96,0.0,0.0,77,0.00,,,0.00,0,Wunderground v.1.15,2013-01-22 09:31:00,
2013-01-22 02:36:00,12.2,6.4,30.55,East,96,0.0,0.0,77,0.00,,,0.00,0,Wunderground v.1.15,2013-01-22 09:36:00,
2013-01-22 02:41:00,12.3,6.2,30.55,East,96,0.0,0.0,76,0.00,,,0.00,0,Wunderground v.1.15,2013-01-22 09:41:00,
2013-01-22 02:46:00,11.9,5.8,30.56,East,96,0.0,0.0,76,0.00,,,0.00,0,Wunderground v.1.15,2013-01-22 09:46:00,
2013-01-22 02:51:00,11.8,5.7,30.56,East,96,0.0,0.0,76,0.00,,,0.00,0,Wunderground v.1.15,2013-01-22 09:51:00,
2013-01-22 02:56:00,11.7,5.6,30.56,East,96,0.0,0.0,76,0.00,,,0.00,0,Wunderground v.1.15,2013-01-22 09:56:00,
2013-01-22 03:01:00,11.5,5.4,30.56,East,96,0.0,0.0,76,0.00,,,0.00,0,Wunderground v.1.15,2013-01-22 10:01:00,
2013-01-22 03:06:00,11.5,5.7,30.55,East,96,0.0,0.0,77,0.00,,,0.00,0,Wunderground v.1.15,2013-01-22 10:06:00,
2013-01-22 03:11:00,11.5,5.7,30.55,East,96,0.0,0.0,77,0.00,,,0.00,0,Wunderground v.1.15,2013-01-22 10:11:00,
2013-01-22 03:16:00,11.0,5.2,30.55,East,96,0.0,0.0,77,0.00,,,0.00,0,Wunderground v.1.15,2013-01-22 10:16:00,
2013-01-22 03:21:00,10.9,5.1,30.55,East,96,0.0,0.0,77,0.00,,,0.00,0,Wunderground v.1.15,2013-01-22 10:21:00,
2013-01-22 03:26:00,10.7,4.9,30.55,East,96,0.0,0.0,77,0.00,,,0.00,0,Wunderground v.1.15,2013-01-22 10:26:00,
2013-01-22 03:31:00,10.6,4.8,30.55,East,96,0.0,0.0,77,0.00,,,0.00,0,Wunderground v.1.15,2013-01-22 10:31:00,
2013-01-22 03:36:00,10.7,4.9,30.56,East,96,0.0,0.0,77,0.00,,,0.00,0,Wunderground v.1.15,2013-01-22 10:36:00,
2013-01-22 03:41:00,10.8,5.0,30.55,East,96,0.0,0.0,77,0.00,,,0.00,0,Wunderground v.1.15,2013-01-22 10:41:00,
2013-01-22 03:46:00,10.4,4.6,30.56,East,96,0.0,0.0,77,0.00,,,0.00,0,Wunderground v.1.15,2013-01-22 10:46:00,
2013-01-22 03:51:00,10.7,5.2,30.55,East,96,0.0,0.0,78,0.00,,,0.00,0,Wunderground v.1.15,2013-01-22 10:51:00,
2013-01-22 03:56:00,10.8,5.3,30.55,East,96,0.0,0.0,78,0.00,,,0.00,0,Wunderground v.1.15,2013-01-22 10:56:00,
2013-01-22 04:01:00,10.7,5.2,30.56,East,96,0.0,0.0,78,0.00,,,0.00,0,Wunderground v.1.15,2013-01-22 11:01:00,
2013-01-22 04:06:00,10.5,4.7,30.55,East,96,0.0,0.0,77,0.00,,,0.00,0,Wunderground v.1.15,2013-01-22 11:06:00,
2013-01-22 04:11:00,10.3,4.5,30.55,East,96,0.0,0.0,77,0.00,,,0.00,0,Wunderground v.1.15,2013-01-22 11:11:00,
2013-01-22 04:16:00,10.2,4.4,30.55,East,96,0.0,0.0,77,0.00,,,0.00,0,Wunderground v.1.15,2013-01-22 11:16:00,
2013-01-22 04:21:00,10.2,4.7,30.55,East,96,0.0,0.0,78,0.00,,,0.00,0,Wunderground v.1.15,2013-01-22 11:21:00,
2013-01-22 04:27:00,10.1,4.3,30.55,East,96,0.0,0.0,77,0.00,,,0.00,0,Wunderground v.1.15,2013-01-22 11:27:00,
2013-01-22 04:32:00,9.9,4.1,30.55,East,96,0.0,0.0,77,0.00,,,0.00,0,Wunderground v.1.15,2013-01-22 11:32:00,
2013-01-22 04:37:00,9.9,4.4,30.55,East,96,0.0,0.0,78,0.00,,,0.00,0,Wunderground v.1.15,2013-01-22 11:37:00,
2013-01-22 04:42:00,9.8,4.0,30.55,East,96,0.0,0.0,77,0.00,,,0.00,0,Wunderground v.1.15,2013-01-22 11:42:00,
2013-01-22 04:47:00,9.9,4.4,30.55,East,96,0.0,0.0,78,0.00,,,0.00,0,Wunderground v.1.15,2013-01-22 11:47:00,
2013-01-22 04:52:00,9.9,4.4,30.55,East,96,0.0,0.0,78,0.00,,,0.00,0,Wunderground v.1.15,2013-01-22 11:52:00,
2013-01-22 04:57:00,10.0,4.5,30.55,East,96,0.0,0.0,78,0.00,,,0.00,0,Wunderground v.1.15,2013-01-22 11:57:00,
2013-01-22 05:02:00,10.5,5.3,30.56,East,96,0.0,0.0,79,0.00,,,0.00,0,Wunderground v.1.15,2013-01-22 12:02:00,
2013-01-22 05:07:00,10.5,5.3,30.56,East,96,0.0,0.0,79,0.00,,,0.00,0,Wunderground v.1.15,2013-01-22 12:07:00,
2013-01-22 05:12:00,10.3,4.8,30.56,East,96,0.0,0.0,78,0.00,,,0.00,0,Wunderground v.1.15,2013-01-22 12:12:00,
2013-01-22 05:17:00,9.9,4.4,30.56,East,96,0.0,0.0,78,0.00,,,0.00,0,Wunderground v.1.15,2013-01-22 12:17:00,
2013-01-22 05:22:00,9.4,3.6,30.56,East,96,0.0,0.0,77,0.00,,,0.00,0,Wunderground v.1.15,2013-01-22 12:22:00,
2013-01-22 05:27:00,9.0,3.3,30.56,East,96,0.0,0.0,77,0.00,,,0.00,0,Wunderground v.1.15,2013-01-22 12:27:00,
2013-01-22 05:32:00,8.8,3.3,30.56,East,96,0.0,0.0,78,0.00,,,0.00,0,Wunderground v.1.15,2013-01-22 12:32:00,
2013-01-22 05:37:00,8.8,3.3,30.56,East,96,0.0,0.0,78,0.00,,,0.00,0,Wunderground v.1.15,2013-01-22 12:37:00,
2013-01-22 05:42:00,8.5,3.0,30.56,East,96,0.0,0.0,78,0.00,,,0.00,0,Wunderground v.1.15,2013-01-22 12:42:00,
2013-01-22 05:47:00,8.5,3.0,30.56,East,96,0.0,0.0,78,0.00,,,0.00,0,Wunderground v.1.15,2013-01-22 12:47:00,
2013-01-22 05:52:00,8.4,2.9,30.57,East,96,0.0,0.0,78,0.00,,,0.00,0,Wunderground v.1.15,2013-01-22 12:52:00,
2013-01-22 05:57:00,8.2,2.8,30.56,East,96,0.0,0.0,78,0.00,,,0.00,0,Wunderground v.1.15,2013-01-22 12:57:00,
2013-01-22 06:02:00,8.1,2.7,30.57,East,96,0.0,0.0,78,0.00,,,0.00,0,Wunderground v.1.15,2013-01-22 13:02:00,
2013-01-22 06:08:00,8.4,3.2,30.57,East,96,0.0,0.0,79,0.00,,,0.00,0,Wunderground v.1.15,2013-01-22 13:08:00,
2013-01-22 06:13:00,8.3,3.1,30.57,East,96,0.0,0.0,79,0.00,,,0.00,0,Wunderground v.1.15,2013-01-22 13:13:00,
2013-01-22 06:18:00,8.1,2.7,30.56,East,96,0.0,0.0,78,0.00,,,0.00,0,Wunderground v.1.15,2013-01-22 13:18:00,
2013-01-22 06:23:00,8.0,2.6,30.57,East,96,0.0,0.0,78,0.00,,,0.00,0,Wunderground v.1.15,2013-01-22 13:23:00,
2013-01-22 06:28:00,7.8,2.4,30.57,East,96,0.0,0.0,78,0.00,,,0.00,0,Wunderground v.1.15,2013-01-22 13:28:00,
2013-01-22 06:33:00,7.1,1.7,30.57,East,96,0.0,0.0,78,0.00,,,0.00,0,Wunderground v.1.15,2013-01-22 13:33:00,
2013-01-22 06:38:00,7.6,2.4,30.57,East,96,0.0,0.0,79,0.00,,,0.00,0,Wunderground v.1.15,2013-01-22 13:38:00,
2013-01-22 06:43:00,8.1,3.2,30.57,East,96,0.0,0.0,80,0.00,,,0.00,0,Wunderground v.1.15,2013-01-22 13:43:00,
2013-01-22 06:48:00,8.6,3.7,30.57,East,96,0.0,0.0,80,0.00,,,0.00,0,Wunderground v.1.15,2013-01-22 13:48:00,
2013-01-22 06:54:00,8.9,4.0,30.57,East,96,0.0,0.0,80,0.00,,,0.00,0,Wunderground v.1.15,2013-01-22 13:54:00,
2013-01-22 06:59:00,9.1,3.9,30.57,East,96,0.0,0.0,79,0.00,,,0.00,0,Wunderground v.1.15,2013-01-22 13:59:00,
2013-01-22 07:04:00,8.7,3.5,30.57,East,96,0.0,0.0,79,0.00,,,0.00,0,Wunderground v.1.15,2013-01-22 14:04:00,
2013-01-22 07:09:00,8.4,2.9,30.57,East,96,0.0,0.0,78,0.00,,,0.00,0,Wunderground v.1.15,2013-01-22 14:09:00,
2013-01-22 07:14:00,8.2,2.8,30.57,East,96,0.0,0.0,78,0.00,,,0.00,0,Wunderground v.1.15,2013-01-22 14:14:00,
2013-01-22 07:19:00,7.9,2.5,30.57,East,96,0.0,0.0,78,0.00,,,0.00,0,Wunderground v.1.15,2013-01-22 14:19:00,
2013-01-22 07:24:00,7.7,2.3,30.57,East,96,0.0,0.0,78,0.00,,,0.00,0,Wunderground v.1.15,2013-01-22 14:24:00,
2013-01-22 07:29:00,7.7,2.3,30.57,East,96,0.0,0.0,78,0.00,,,0.00,0,Wunderground v.1.15,2013-01-22 14:29:00,
2013-01-22 07:34:00,7.8,2.6,30.58,East,96,0.0,0.0,79,0.00,,,0.00,5,Wunderground v.1.15,2013-01-22 14:34:00,
2013-01-22 07:39:00,7.6,2.2,30.57,East,96,0.0,0.0,78,0.00,,,0.00,7,Wunderground v.1.15,2013-01-22 14:39:00,
2013-01-22 07:44:00,7.4,2.0,30.57,East,96,0.0,0.0,78,0.00,,,0.00,9,Wunderground v.1.15,2013-01-22 14:44:00,
2013-01-22 07:49:00,7.2,1.8,30.57,East,96,0.0,0.0,78,0.00,,,0.00,11,Wunderground v.1.15,2013-01-22 14:49:00,
2013-01-22 07:54:00,6.9,1.5,30.57,East,96,0.0,0.0,78,0.00,,,0.00,19,Wunderground v.1.15,2013-01-22 14:54:00,
2013-01-22 07:59:00,6.9,1.5,30.57,East,96,0.0,0.0,78,0.00,,,0.00,35,Wunderground v.1.15,2013-01-22 14:59:00,
2013-01-22 08:04:00,7.5,2.3,30.57,East,96,0.0,0.0,79,0.00,,,0.00,53,Wunderground v.1.15,2013-01-22 15:04:00,
2013-01-22 08:09:00,8.6,3.7,30.57,East,96,0.0,0.0,80,0.00,,,0.00,74,Wunderground v.1.15,2013-01-22 15:09:00,
2013-01-22 08:14:00,10.0,5.3,30.57,East,96,0.0,0.0,81,0.00,,,0.00,90,Wunderground v.1.15,2013-01-22 15:14:00,
2013-01-22 08:19:00,11.2,6.5,30.57,East,96,0.0,0.0,81,0.00,,,0.00,104,Wunderground v.1.15,2013-01-22 15:19:00,
2013-01-22 08:24:00,12.4,7.7,30.57,East,96,0.0,0.0,81,0.00,,,0.00,118,Wunderground v.1.15,2013-01-22 15:24:00,
2013-01-22 08:29:00,13.5,8.5,30.57,East,96,0.0,0.0,80,0.00,,,0.00,149,Wunderground v.1.15,2013-01-22 15:29:00,
2013-01-22 08:34:00,14.5,9.5,30.57,East,96,0.0,0.0,80,0.00,,,0.00,186,Wunderground v.1.15,2013-01-22 15:34:00,
2013-01-22 08:39:00,15.5,10.1,30.57,East,96,0.0,0.0,79,0.00,,,0.00,193,Wunderground v.1.15,2013-01-22 15:39:00,
2013-01-22 08:44:00,16.5,11.1,30.57,East,96,0.0,0.0,79,0.00,,,0.00,204,Wunderground v.1.15,2013-01-22 15:44:00,
2013-01-22 08:49:00,17.6,12.2,30.57,East,96,0.0,0.0,79,0.00,,,0.00,209,Wunderground v.1.15,2013-01-22 15:49:00,
2013-01-22 08:54:00,18.7,13.0,30.57,East,96,0.0,0.0,78,0.00,,,0.00,218,Wunderground v.1.15,2013-01-22 15:54:00,
2013-01-22 08:59:00,19.7,14.0,30.57,East,96,0.0,0.0,78,0.00,,,0.00,236,Wunderground v.1.15,2013-01-22 15:59:00,
2013-01-22 09:04:00,20.9,14.8,30.57,East,96,0.0,0.0,77,0.00,,,0.00,251,Wunderground v.1.15,2013-01-22 16:04:00,
2013-01-22 09:09:00,22.0,15.3,30.57,East,96,0.0,0.0,75,0.00,,,0.00,264,Wunderground v.1.15,2013-01-22 16:09:00,
2013-01-22 09:14:00,23.1,15.7,30.57,East,96,0.0,0.0,73,0.00,,,0.00,283,Wunderground v.1.15,2013-01-22 16:14:00,
2013-01-22 09:19:00,24.6,16.5,30.57,East,96,0.0,0.0,71,0.00,,,0.00,299,Wunderground v.1.15,2013-01-22 16:19:00,
2013-01-22 09:24:00,26.1,17.0,30.57,East,96,0.0,0.0,68,0.00,,,0.00,313,Wunderground v.1.15,2013-01-22 16:24:00,
2013-01-22 09:29:00,26.7,16.1,30.57,East,96,0.0,0.0,64,0.00,,,0.00,327,Wunderground v.1.15,2013-01-22 16:29:00,
2013-01-22 09:35:00,27.5,16.5,30.57,East,96,0.0,0.0,63,0.00,,,0.00,339,Wunderground v.1.15,2013-01-22 16:35:00,
2013-01-22 09:40:00,29.2,17.4,30.57,East,96,0.0,0.0,61,0.00,,,0.00,355,Wunderground v.1.15,2013-01-22 16:40:00,
2013-01-22 09:45:00,31.6,18.9,30.57,East,96,0.0,0.0,59,0.00,,,0.00,369,Wunderground v.1.15,2013-01-22 16:45:00,
2013-01-22 09:50:00,32.8,18.8,30.57,East,96,0.0,0.0,56,0.00,,,0.00,381,Wunderground v.1.15,2013-01-22 16:50:00,
2013-01-22 09:55:00,33.2,19.2,30.57,East,96,0.0,0.0,56,0.00,,,0.00,396,Wunderground v.1.15,2013-01-22 16:55:00,
2013-01-22 10:00:00,33.5,19.0,30.57,East,96,0.0,0.0,55,0.00,,,0.00,408,Wunderground v.1.15,2013-01-22 17:00:00,
2013-01-22 10:05:00,34.4,19.9,30.57,East,96,0.0,0.0,55,0.00,,,0.00,415,Wunderground v.1.15,2013-01-22 17:05:00,
2013-01-22 10:10:00,35.2,21.1,30.57,East,96,0.0,0.0,56,0.00,,,0.00,427,Wunderground v.1.15,2013-01-22 17:10:00,
2013-01-22 10:15:00,36.9,20.4,30.57,East,96,0.0,0.0,51,0.00,,,0.00,439,Wunderground v.1.15,2013-01-22 17:15:00,
2013-01-22 10:20:00,38.1,19.6,30.57,East,96,0.0,0.0,47,0.00,,,0.00,452,Wunderground v.1.15,2013-01-22 17:20:00,
2013-01-22 10:25:00,38.6,20.1,30.57,East,96,0.0,0.0,47,0.00,,,0.00,462,Wunderground v.1.15,2013-01-22 17:25:00,
2013-01-22 10:30:00,39.5,19.9,30.57,East,96,0.0,0.0,45,0.00,,,0.00,473,Wunderground v.1.15,2013-01-22 17:30:00,
2013-01-22 10:35:00,40.2,18.9,30.57,SSE,168,0.0,0.0,42,0.00,,,0.00,482,Wunderground v.1.15,2013-01-22 17:35:00,
2013-01-22 10:40:00,40.7,18.8,30.57,South,186,0.0,0.0,41,0.00,,,0.00,490,Wunderground v.1.15,2013-01-22 17:40:00,
2013-01-22 10:45:00,41.4,18.9,30.57,South,188,0.0,0.0,40,0.00,,,0.00,499,Wunderground v.1.15,2013-01-22 17:45:00,
2013-01-22 10:50:00,42.1,18.9,30.57,South,189,0.0,0.0,39,0.00,,,0.00,506,Wunderground v.1.15,2013-01-22 17:50:00,
2013-01-22 10:55:00,43.1,19.2,30.57,South,188,0.0,0.0,38,0.00,,,0.00,515,Wunderground v.1.15,2013-01-22 17:55:00,
2013-01-22 11:00:00,44.1,19.5,30.57,South,189,0.0,0.0,37,0.00,,,0.00,522,Wunderground v.1.15,2013-01-22 18:00:00,
2013-01-22 11:05:00,45.0,19.6,30.57,South,188,0.0,0.0,36,0.00,,,0.00,531,Wunderground v.1.15,2013-01-22 18:05:00,
2013-01-22 11:10:00,45.2,18.5,30.56,South,189,0.0,0.0,34,0.00,,,0.00,536,Wunderground v.1.15,2013-01-22 18:10:00,
2013-01-22 11:15:00,45.5,18.0,30.56,South,189,0.0,0.0,33,0.00,,,0.00,545,Wunderground v.1.15,2013-01-22 18:15:00,
2013-01-22 11:20:00,45.7,18.2,30.56,South,189,0.0,0.0,33,0.00,,,0.00,550,Wunderground v.1.15,2013-01-22 18:20:00,
2013-01-22 11:25:00,46.7,18.4,30.56,South,186,0.0,0.0,32,0.00,,,0.00,557,Wunderground v.1.15,2013-01-22 18:25:00,
2013-01-22 11:30:00,47.3,18.9,30.55,South,186,0.0,0.0,32,0.00,,,0.00,563,Wunderground v.1.15,2013-01-22 18:30:00,
2013-01-22 11:35:00,47.9,18.7,30.55,South,186,0.0,0.0,31,0.00,,,0.00,564,Wunderground v.1.15,2013-01-22 18:35:00,
2013-01-22 11:40:00,48.3,18.3,30.55,South,182,0.0,0.0,30,0.00,,,0.00,570,Wunderground v.1.15,2013-01-22 18:40:00,
2013-01-22 11:45:00,48.5,18.4,30.55,South,182,0.0,0.0,30,0.00,,,0.00,573,Wunderground v.1.15,2013-01-22 18:45:00,
2013-01-22 11:50:00,48.6,18.5,30.54,South,182,0.0,0.0,30,0.00,,,0.00,578,Wunderground v.1.15,2013-01-22 18:50:00,
2013-01-22 11:55:00,49.0,18.1,30.54,South,180,0.0,0.0,29,0.00,,,0.00,582,Wunderground v.1.15,2013-01-22 18:55:00,
2013-01-22 12:00:00,49.5,18.5,30.54,South,180,0.0,0.0,29,0.00,,,0.00,584,Wunderground v.1.15,2013-01-22 19:00:00,
2013-01-22 12:05:00,49.2,18.3,30.53,South,185,0.0,0.0,29,0.00,,,0.00,587,Wunderground v.1.15,2013-01-22 19:05:00,
2013-01-22 12:10:00,49.2,18.3,30.53,SSE,160,0.0,0.0,29,0.00,,,0.00,587,Wunderground v.1.15,2013-01-22 19:10:00,
2013-01-22 12:15:00,49.2,17.4,30.52,SSE,159,0.0,0.0,28,0.00,,,0.00,589,Wunderground v.1.15,2013-01-22 19:15:00,
2013-01-22 12:20:00,49.2,17.4,30.53,SSW,196,0.0,0.0,28,0.00,,,0.00,589,Wunderground v.1.15,2013-01-22 19:20:00,
2013-01-22 12:25:00,49.4,18.4,30.52,South,184,0.0,3.0,29,0.00,,,0.00,589,Wunderground v.1.15,2013-01-22 19:25:00,
2013-01-22 12:30:00,49.4,18.4,30.52,SSW,196,0.0,0.0,29,0.00,,,0.00,589,Wunderground v.1.15,2013-01-22 19:30:00,
2013-01-22 12:35:00,49.7,17.9,30.52,SSE,168,0.0,2.0,28,0.00,,,0.00,591,Wunderground v.1.15,2013-01-22 19:35:00,
2013-01-22 12:40:00,50.2,19.1,30.51,SE,138,0.0,3.0,29,0.00,,,0.00,589,Wunderground v.1.15,2013-01-22 19:40:00,
2013-01-22 12:46:00,50.2,18.3,30.51,SE,140,0.0,3.0,28,0.00,,,0.00,589,Wunderground v.1.15,2013-01-22 19:46:00,
2013-01-22 12:51:00,50.3,19.2,30.51,South,172,3.0,5.0,29,0.00,,,0.00,587,Wunderground v.1.15,2013-01-22 19:51:00,
2013-01-22 12:56:00,50.3,19.2,30.51,South,185,0.0,5.0,29,0.00,,,0.00,584,Wunderground v.1.15,2013-01-22 19:56:00,
2013-01-22 13:01:00,50.8,19.6,30.50,SE,140,0.0,1.0,29,0.00,,,0.00,582,Wunderground v.1.15,2013-01-22 20:01:00,
2013-01-22 13:06:00,50.9,19.7,30.50,SSE,159,0.0,3.0,29,0.00,,,0.00,578,Wunderground v.1.15,2013-01-22 20:06:00,
2013-01-22 13:11:00,51.2,20.0,30.50,South,171,0.0,0.0,29,0.00,,,0.00,577,Wunderground v.1.15,2013-01-22 20:11:00,
2013-01-22 13:16:00,51.6,19.5,30.49,SSW,192,0.0,3.0,28,0.00,,,0.00,573,Wunderground v.1.15,2013-01-22 20:16:00,
2013-01-22 13:21:00,51.5,20.2,30.49,SE,136,0.0,6.0,29,0.00,,,0.00,568,Wunderground v.1.15,2013-01-22 20:21:00,
2013-01-22 13:27:00,51.5,19.4,30.48,South,173,0.0,6.0,28,0.00,,,0.00,563,Wunderground v.1.15,2013-01-22 20:27:00,
2013-01-22 13:32:00,51.1,18.2,30.49,SE,128,0.0,0.0,27,0.00,,,0.00,557,Wunderground v.1.15,2013-01-22 20:32:00,
2013-01-22 13:37:00,50.9,18.1,30.48,ESE,113,0.0,4.0,27,0.00,,,0.00,554,Wunderground v.1.15,2013-01-22 20:37:00,
2013-01-22 13:42:00,51.2,20.8,30.48,ESE,113,0.0,0.0,30,0.00,,,0.00,548,Wunderground v.1.15,2013-01-22 20:42:00,
2013-01-22 13:47:00,51.2,20.0,30.48,SE,129,0.0,4.0,29,0.00,,,0.00,541,Wunderground v.1.15,2013-01-22 20:47:00,
2013-01-22 13:52:00,51.2,19.2,30.48,ESE,120,0.0,6.0,28,0.00,,,0.00,534,Wunderground v.1.15,2013-01-22 20:52:00,
2013-01-22 13:57:00,51.3,19.3,30.48,ESE,105,0.0,6.0,28,0.00,,,0.00,527,Wunderground v.1.15,2013-01-22 20:57:00,
2013-01-22 14:03:00,51.0,19.0,30.48,East,86,3.0,3.0,28,0.00,,,0.00,519,Wunderground v.1.15,2013-01-22 21:03:00,
2013-01-22 14:08:00,51.0,19.0,30.48,ESE,115,2.0,5.0,28,0.00,,,0.00,512,Wunderground v.1.15,2013-01-22 21:08:00,
2013-01-22 14:13:00,51.1,19.1,30.48,East,100,3.0,6.0,28,0.00,,,0.00,504,Wunderground v.1.15,2013-01-22 21:13:00,
2013-01-22 14:18:00,50.8,19.6,30.48,East,92,1.0,6.0,29,0.00,,,0.00,496,Wunderground v.1.15,2013-01-22 21:18:00,
2013-01-22 14:23:00,50.9,18.9,30.48,East,92,0.0,3.0,28,0.00,,,0.00,487,Wunderground v.1.15,2013-01-22 21:23:00,
2013-01-22 14:28:00,51.0,18.1,30.48,East,98,0.0,4.0,27,0.00,,,0.00,478,Wunderground v.1.15,2013-01-22 21:28:00,
2013-01-22 14:31:00,51.0,18.1,30.48,ESE,113,1.0,2.0,27,0.00,,,0.00,471,Wunderground v.1.15,2013-01-22 21:31:00,
2013-01-22 14:36:00,51.3,19.3,30.48,ESE,110,0.0,3.0,28,0.00,,,0.00,461,Wunderground v.1.15,2013-01-22 21:36:00,
2013-01-22 14:41:00,51.4,18.5,30.48,ESE,114,4.0,5.0,27,0.00,,,0.00,450,Wunderground v.1.15,2013-01-22 21:41:00,
2013-01-22 14:47:00,51.3,18.4,30.48,East,94,2.0,5.0,27,0.00,,,0.00,441,Wunderground v.1.15,2013-01-22 21:47:00,
2013-01-22 14:52:00,51.2,18.3,30.48,ESE,103,2.0,3.0,27,0.00,,,0.00,429,Wunderground v.1.15,2013-01-22 21:52:00,
2013-01-22 14:57:00,51.3,17.5,30.48,SE,125,0.0,6.0,26,0.00,,,0.00,418,Wunderground v.1.15,2013-01-22 21:57:00,
2013-01-22 15:02:00,51.6,17.8,30.48,ESE,102,0.0,1.0,26,0.00,,,0.00,404,Wunderground v.1.15,2013-01-22 22:02:00,
2013-01-22 15:07:00,51.6,18.7,30.48,ESE,103,0.0,1.0,27,0.00,,,0.00,394,Wunderground v.1.15,2013-01-22 22:07:00,
2013-01-22 15:12:00,51.8,17.0,30.48,ESE,120,0.0,0.0,25,0.00,,,0.00,380,Wunderground v.1.15,2013-01-22 22:12:00,
2013-01-22 15:18:00,51.8,18.0,30.48,ESE,120,0.0,0.0,26,0.00,,,0.00,367,Wunderground v.1.15,2013-01-22 22:18:00,
2013-01-22 15:23:00,52.5,17.6,30.48,South,175,0.0,0.0,25,0.00,,,0.00,355,Wunderground v.1.15,2013-01-22 22:23:00,
2013-01-22 15:28:00,52.9,18.0,30.48,South,173,0.0,0.0,25,0.00,,,0.00,345,Wunderground v.1.15,2013-01-22 22:28:00,
2013-01-22 15:33:00,53.2,17.3,30.48,South,172,0.0,0.0,24,0.00,,,0.00,330,Wunderground v.1.15,2013-01-22 22:33:00,
2013-01-22 15:38:00,53.0,17.1,30.48,South,172,0.0,0.0,24,0.00,,,0.00,316,Wunderground v.1.15,2013-01-22 22:38:00,
2013-01-22 15:43:00,52.8,16.9,30.48,South,172,0.0,0.0,24,0.00,,,0.00,301,Wunderground v.1.15,2013-01-22 22:43:00,
2013-01-22 15:48:00,52.9,18.9,30.48,South,172,0.0,0.0,26,0.00,,,0.00,287,Wunderground v.1.15,2013-01-22 22:48:00,
2013-01-22 15:54:00,52.4,18.5,30.48,SSE,163,0.0,0.0,26,0.00,,,0.00,272,Wunderground v.1.15,2013-01-22 22:54:00,
2013-01-22 15:59:00,52.5,17.6,30.48,South,170,0.0,0.0,25,0.00,,,0.00,258,Wunderground v.1.15,2013-01-22 22:59:00,
2013-01-22 16:04:00,52.5,17.6,30.48,SE,130,0.0,0.0,25,0.00,,,0.00,243,Wunderground v.1.15,2013-01-22 23:04:00,
2013-01-22 16:09:00,51.7,17.9,30.48,ESE,107,0.0,0.0,26,0.00,,,0.00,229,Wunderground v.1.15,2013-01-22 23:09:00,
2013-01-22 16:14:00,51.1,18.2,30.47,ESE,107,0.0,0.0,27,0.00,,,0.00,216,Wunderground v.1.15,2013-01-22 23:14:00,
2013-01-22 16:19:00,51.0,17.3,30.47,ESE,106,0.0,0.0,26,0.00,,,0.00,199,Wunderground v.1.15,2013-01-22 23:19:00,
2013-01-22 16:24:00,51.0,17.3,30.48,ESE,107,0.0,0.0,26,0.00,,,0.00,181,Wunderground v.1.15,2013-01-22 23:24:00,
2013-01-22 16:29:00,50.9,17.2,30.48,ESE,107,0.0,0.0,26,0.00,,,0.00,162,Wunderground v.1.15,2013-01-22 23:29:00,
2013-01-22 16:34:00,50.7,16.1,30.48,ESE,107,0.0,0.0,25,0.00,,,0.00,141,Wunderground v.1.15,2013-01-22 23:34:00,
2013-01-22 16:39:00,50.9,18.1,30.48,ESE,107,0.0,0.0,27,0.00,,,0.00,123,Wunderground v.1.15,2013-01-22 23:39:00,
2013-01-22 16:44:00,51.0,18.1,30.48,ESE,107,0.0,0.0,27,0.00,,,0.00,105,Wunderground v.1.15,2013-01-22 23:44:00,
2013-01-22 16:49:00,50.6,17.8,30.48,ESE,106,0.0,0.0,27,0.00,,,0.00,88,Wunderground v.1.15,2013-01-22 23:49:00,
2013-01-22 16:54:00,50.3,18.4,30.48,ESE,106,0.0,0.0,28,0.00,,,0.00,74,Wunderground v.1.15,2013-01-22 23:54:00,
2013-01-22 16:59:00,50.2,17.5,30.48,ESE,107,0.0,0.0,27,0.00,,,0.00,58,Wunderground v.1.15,2013-01-22 23:59:00,
2013-01-22 17:04:00,49.6,17.8,30.48,ESE,106,0.0,0.0,28,0.00,,,0.00,44,Wunderground v.1.15,2013-01-23 00:04:00,
2013-01-22 17:09:00,49.1,17.3,30.48,ESE,106,0.0,0.0,28,0.00,,,0.00,32,Wunderground v.1.15,2013-01-23 00:09:00,
2013-01-22 17:14:00,48.3,17.5,30.47,ESE,107,0.0,0.0,29,0.00,,,0.00,21,Wunderground v.1.15,2013-01-23 00:14:00,
2013-01-22 17:19:00,47.7,16.9,30.48,ESE,107,0.0,0.0,29,0.00,,,0.00,14,Wunderground v.1.15,2013-01-23 00:19:00,
2013-01-22 17:24:00,47.1,17.2,30.48,ESE,107,0.0,0.0,30,0.00,,,0.00,12,Wunderground v.1.15,2013-01-23 00:24:00,
2013-01-22 17:29:00,46.3,16.5,30.48,ESE,106,0.0,0.0,30,0.00,,,0.00,11,Wunderground v.1.15,2013-01-23 00:29:00,
2013-01-22 17:34:00,45.5,16.6,30.47,ESE,106,0.0,0.0,31,0.00,,,0.00,7,Wunderground v.1.15,2013-01-23 00:34:00,
2013-01-22 17:39:00,44.6,16.5,30.47,ESE,107,0.0,0.0,32,0.00,,,0.00,5,Wunderground v.1.15,2013-01-23 00:39:00,
2013-01-22 17:44:00,43.6,16.3,30.47,ESE,107,0.0,0.0,33,0.00,,,0.00,0,Wunderground v.1.15,2013-01-23 00:44:00,
2013-01-22 17:49:00,42.7,16.2,30.47,ESE,107,0.0,0.0,34,0.00,,,0.00,0,Wunderground v.1.15,2013-01-23 00:49:00,
2013-01-22 17:54:00,41.7,16.0,30.47,ESE,107,0.0,0.0,35,0.00,,,0.00,0,Wunderground v.1.15,2013-01-23 00:54:00,
2013-01-22 17:59:00,40.9,16.0,30.47,ESE,107,0.0,0.0,36,0.00,,,0.00,0,Wunderground v.1.15,2013-01-23 00:59:00,
2013-01-22 18:04:00,40.0,16.4,30.48,ESE,106,0.0,0.0,38,0.00,,,0.00,0,Wunderground v.1.15,2013-01-23 01:04:00,
2013-01-22 18:09:00,38.6,16.9,30.48,ESE,107,0.0,0.0,41,0.00,,,0.00,0,Wunderground v.1.15,2013-01-23 01:09:00,
2013-01-22 18:14:00,37.2,16.2,30.48,ESE,107,0.0,0.0,42,0.00,,,0.00,0,Wunderground v.1.15,2013-01-23 01:14:00,
2013-01-22 18:19:00,36.0,16.7,30.48,ESE,107,0.0,0.0,45,0.00,,,0.00,0,Wunderground v.1.15,2013-01-23 01:19:00,
2013-01-22 18:24:00,34.5,16.3,30.48,ESE,106,0.0,0.0,47,0.00,,,0.00,0,Wunderground v.1.15,2013-01-23 01:24:00,
2013-01-22 18:29:00,33.4,16.3,30.48,ESE,107,0.0,0.0,49,0.00,,,0.00,0,Wunderground v.1.15,2013-01-23 01:29:00,
2013-01-22 18:34:00,32.2,16.1,30.48,ESE,106,0.0,0.0,51,0.00,,,0.00,0,Wunderground v.1.15,2013-01-23 01:34:00,
2013-01-22 18:39:00,31.2,16.0,30.48,ESE,107,0.0,0.0,53,0.00,,,0.00,0,Wunderground v.1.15,2013-01-23 01:39:00,
2013-01-22 18:44:00,30.4,15.7,30.49,ESE,106,0.0,0.0,54,0.00,,,0.00,0,Wunderground v.1.15,2013-01-23 01:44:00,
2013-01-22 18:49:00,30.5,15.4,30.49,ESE,107,0.0,0.0,53,0.00,,,0.00,0,Wunderground v.1.15,2013-01-23 01:49:00,
2013-01-22 18:54:00,30.3,15.6,30.49,ESE,107,0.0,0.0,54,0.00,,,0.00,0,Wunderground v.1.15,2013-01-23 01:54:00,
2013-01-22 18:59:00,29.1,15.3,30.49,ESE,107,0.0,0.0,56,0.00,,,0.00,0,Wunderground v.1.15,2013-01-23 01:59:00,
2013-01-22 19:04:00,28.1,15.6,30.49,ESE,107,0.0,0.0,59,0.00,,,0.00,0,Wunderground v.1.15,2013-01-23 02:04:00,
2013-01-22 19:09:00,27.3,15.6,30.49,ESE,106,0.0,0.0,61,0.00,,,0.00,0,Wunderground v.1.15,2013-01-23 02:09:00,
2013-01-22 19:14:00,26.7,15.4,30.49,ESE,107,0.0,0.0,62,0.00,,,0.00,0,Wunderground v.1.15,2013-01-23 02:14:00,
2013-01-22 19:19:00,26.1,15.2,30.49,ESE,107,0.0,0.0,63,0.00,,,0.00,0,Wunderground v.1.15,2013-01-23 02:19:00,
2013-01-22 19:24:00,26.2,15.7,30.50,ESE,107,0.0,0.0,64,0.00,,,0.00,0,Wunderground v.1.15,2013-01-23 02:24:00,
2013-01-22 19:29:00,26.2,16.0,30.50,ESE,107,0.0,0.0,65,0.00,,,0.00,0,Wunderground v.1.15,2013-01-23 02:29:00,
2013-01-22 19:34:00,26.1,15.9,30.50,ESE,106,0.0,0.0,65,0.00,,,0.00,0,Wunderground v.1.15,2013-01-23 02:34:00,
2013-01-22 19:39:00,26.0,15.5,30.50,ESE,107,0.0,0.0,64,0.00,,,0.00,0,Wunderground v.1.15,2013-01-23 02:39:00,
2013-01-22 19:44:00,25.6,15.1,30.50,ESE,106,0.0,0.0,64,0.00,,,0.00,0,Wunderground v.1.15,2013-01-23 02:44:00,
2013-01-22 19:49:00,24.6,14.9,30.50,ESE,106,0.0,0.0,66,0.00,,,0.00,0,Wunderground v.1.15,2013-01-23 02:49:00,
2013-01-22 19:54:00,24.0,15.0,30.50,ESE,106,0.0,0.0,68,0.00,,,0.00,0,Wunderground v.1.15,2013-01-23 02:54:00,
2013-01-22 19:59:00,23.6,14.9,30.50,ESE,107,0.0,0.0,69,0.00,,,0.00,0,Wunderground v.1.15,2013-01-23 02:59:00,
2013-01-22 20:04:00,23.9,15.2,30.50,ESE,107,0.0,0.0,69,0.00,,,0.00,0,Wunderground v.1.15,2013-01-23 03:04:00,
2013-01-22 20:09:00,24.4,15.3,30.50,ESE,106,0.0,0.0,68,0.00,,,0.00,0,Wunderground v.1.15,2013-01-23 03:09:00,
2013-01-22 20:15:00,24.4,15.7,30.50,ESE,107,0.0,0.0,69,0.00,,,0.00,0,Wunderground v.1.15,2013-01-23 03:15:00,
2013-01-22 20:20:00,24.2,15.8,30.50,ESE,107,0.0,0.0,70,0.00,,,0.00,0,Wunderground v.1.15,2013-01-23 03:20:00,
2013-01-22 20:25:00,24.1,16.1,30.50,ESE,107,0.0,0.0,71,0.00,,,0.00,0,Wunderground v.1.15,2013-01-23 03:25:00,
2013-01-22 20:30:00,24.1,16.4,30.50,ESE,107,0.0,0.0,72,0.00,,,0.00,0,Wunderground v.1.15,2013-01-23 03:30:00,
2013-01-22 20:35:00,24.2,16.8,30.50,ESE,107,0.0,0.0,73,0.00,,,0.00,0,Wunderground v.1.15,2013-01-23 03:35:00,
2013-01-22 20:40:00,24.1,16.4,30.50,ESE,107,0.0,0.0,72,0.00,,,0.00,0,Wunderground v.1.15,2013-01-23 03:40:00,
2013-01-22 20:45:00,23.9,16.2,30.50,ESE,107,0.0,0.0,72,0.00,,,0.00,0,Wunderground v.1.15,2013-01-23 03:45:00,
2013-01-22 20:50:00,23.6,15.9,30.50,ESE,107,0.0,0.0,72,0.00,,,0.00,0,Wunderground v.1.15,2013-01-23 03:50:00,
2013-01-22 20:55:00,23.3,15.6,30.50,ESE,107,0.0,0.0,72,0.00,,,0.00,0,Wunderground v.1.15,2013-01-23 03:55:00,
2013-01-22 21:00:00,23.2,15.5,30.50,ESE,107,0.0,0.0,72,0.00,,,0.00,0,Wunderground v.1.15,2013-01-23 04:00:00,
2013-01-22 21:05:00,22.9,14.9,30.50,ESE,106,0.0,0.0,71,0.00,,,0.00,0,Wunderground v.1.15,2013-01-23 04:05:00,
2013-01-22 21:10:00,22.4,14.7,30.50,ESE,107,0.0,0.0,72,0.00,,,0.00,0,Wunderground v.1.15,2013-01-23 04:10:00,
2013-01-22 21:15:00,22.4,15.1,30.50,ESE,107,0.0,0.0,73,0.00,,,0.00,0,Wunderground v.1.15,2013-01-23 04:15:00,
2013-01-22 21:20:00,22.1,14.8,30.50,ESE,106,0.0,0.0,73,0.00,,,0.00,0,Wunderground v.1.15,2013-01-23 04:20:00,
2013-01-22 21:25:00,22.0,15.0,30.50,ESE,106,0.0,0.0,74,0.00,,,0.00,0,Wunderground v.1.15,2013-01-23 04:25:00,
2013-01-22 21:30:00,21.9,15.2,30.51,ESE,107,0.0,0.0,75,0.00,,,0.00,0,Wunderground v.1.15,2013-01-23 04:30:00,
2013-01-22 21:35:00,21.8,15.4,30.51,ESE,106,0.0,0.0,76,0.00,,,0.00,0,Wunderground v.1.15,2013-01-23 04:35:00,
2013-01-22 21:40:00,21.8,15.4,30.51,ESE,106,0.0,0.0,76,0.00,,,0.00,0,Wunderground v.1.15,2013-01-23 04:40:00,
2013-01-22 21:45:00,21.9,15.5,30.51,ESE,107,0.0,0.0,76,0.00,,,0.00,0,Wunderground v.1.15,2013-01-23 04:45:00,
2013-01-22 21:50:00,21.7,15.0,30.51,ESE,106,0.0,0.0,75,0.00,,,0.00,0,Wunderground v.1.15,2013-01-23 04:50:00,
2013-01-22 21:55:00,21.1,14.1,30.51,ESE,106,0.0,0.0,74,0.00,,,0.00,0,Wunderground v.1.15,2013-01-23 04:55:00,
2013-01-22 22:00:00,20.6,13.9,30.51,ESE,106,0.0,0.0,75,0.00,,,0.00,0,Wunderground v.1.15,2013-01-23 05:00:00,
2013-01-22 22:01:00,20.6,13.9,30.51,ESE,106,0.0,0.0,75,0.00,,,0.00,0,Wunderground v.1.15,2013-01-23 05:01:00,
2013-01-22 22:03:00,20.5,13.8,30.52,ESE,107,0.0,0.0,75,0.00,,,0.00,0,Wunderground v.1.15,2013-01-23 05:03:00,
2013-01-22 22:08:00,20.2,13.8,30.52,ESE,106,0.0,0.0,76,0.00,,,0.00,0,Wunderground v.1.15,2013-01-23 05:08:00,
2013-01-22 22:13:00,20.0,13.6,30.52,ESE,107,0.0,0.0,76,0.00,,,0.00,0,Wunderground v.1.15,2013-01-23 05:13:00,
2013-01-22 22:18:00,20.4,14.3,30.52,ESE,106,0.0,0.0,77,0.00,,,0.00,0,Wunderground v.1.15,2013-01-23 05:18:00,
2013-01-22 22:23:00,20.5,14.1,30.52,ESE,106,0.0,0.0,76,0.00,,,0.00,0,Wunderground v.1.15,2013-01-23 05:23:00,
2013-01-22 22:28:00,20.4,14.0,30.52,ESE,107,0.0,0.0,76,0.00,,,0.00,0,Wunderground v.1.15,2013-01-23 05:28:00,
2013-01-22 22:33:00,20.2,14.1,30.53,ESE,106,0.0,0.0,77,0.00,,,0.00,0,Wunderground v.1.15,2013-01-23 05:33:00,
2013-01-22 22:39:00,20.0,13.9,30.53,ESE,107,0.0,0.0,77,0.00,,,0.00,0,Wunderground v.1.15,2013-01-23 05:39:00,
2013-01-22 22:44:00,19.8,13.8,30.53,ESE,107,0.0,0.0,77,0.00,,,0.00,0,Wunderground v.1.15,2013-01-23 05:44:00,
2013-01-22 22:49:00,19.7,13.7,30.53,ESE,106,0.0,0.0,77,0.00,,,0.00,0,Wunderground v.1.15,2013-01-23 05:49:00,
2013-01-22 22:54:00,19.7,13.7,30.54,ESE,106,0.0,0.0,77,0.00,,,0.00,0,Wunderground v.1.15,2013-01-23 05:54:00,
2013-01-22 22:59:00,19.4,13.4,30.54,ESE,107,0.0,0.0,77,0.00,,,0.00,0,Wunderground v.1.15,2013-01-23 05:59:00,
2013-01-22 23:04:00,19.5,13.8,30.53,ESE,106,0.0,0.0,78,0.00,,,0.00,0,Wunderground v.1.15,2013-01-23 06:04:00,
2013-01-22 23:09:00,19.5,13.8,30.53,ESE,106,0.0,0.0,78,0.00,,,0.00,0,Wunderground v.1.15,2013-01-23 06:09:00,
2013-01-22 23:14:00,19.5,13.8,30.53,ESE,106,0.0,0.0,78,0.00,,,0.00,0,Wunderground v.1.15,2013-01-23 06:14:00,
2013-01-22 23:19:00,19.3,13.6,30.53,ESE,107,0.0,0.0,78,0.00,,,0.00,0,Wunderground v.1.15,2013-01-23 06:19:00,
2013-01-22 23:24:00,19.0,13.3,30.52,ESE,106,0.0,0.0,78,0.00,,,0.00,0,Wunderground v.1.15,2013-01-23 06:24:00,
2013-01-22 23:29:00,18.7,13.0,30.52,ESE,106,0.0,0.0,78,0.00,,,0.00,0,Wunderground v.1.15,2013-01-23 06:29:00,
2013-01-22 23:34:00,18.4,12.7,30.52,ESE,107,0.0,0.0,78,0.00,,,0.00,0,Wunderground v.1.15,2013-01-23 06:34:00,
2013-01-22 23:39:00,18.0,12.3,30.52,ESE,107,0.0,0.0,78,0.00,,,0.00,0,Wunderground v.1.15,2013-01-23 06:39:00,
2013-01-22 23:44:00,17.9,12.5,30.52,ESE,106,0.0,0.0,79,0.00,,,0.00,0,Wunderground v.1.15,2013-01-23 06:44:00,
2013-01-22 23:49:00,18.2,12.8,30.52,ESE,107,0.0,0.0,79,0.00,,,0.00,0,Wunderground v.1.15,2013-01-23 06:49:00,
2013-01-22 23:54:00,18.5,13.1,30.53,ESE,107,0.0,0.0,79,0.00,,,0.00,0,Wunderground v.1.15,2013-01-23 06:54:00,
2013-01-22 23:59:00,18.5,13.1,30.52,ESE,106,0.0,0.0,79,0.00,,,0.00,0,Wunderground v.1.15,2013-01-23 06:59:00,